Terminal Aerodrome Forecast
Issued by NWS

Home | Current Version | Previous Version | Text Only | Print | Product List | Glossary On
Versions: 1 2 3 4 5 6 7 8 9 10 11 12 13 14 15 16
000
FTUS41 KPBZ 250522
TAFAGC
TAF
KAGC 250522Z 2506/2606 08004KT P6SM VCSH OVC045
     FM250900 07003KT 5SM BR OVC030
     FM251600 30005KT P6SM VCSH OVC015
     FM252200 31010KT P6SM VCSH OVC008
     FM260400 32006KT P6SM BKN015=

USA.gov is the U.S. government's official web portal to all federal, state and local government web resources and services.